Time;durP1;ratioP1;P1;durP2;ratioP2;P2;SDS_P1;SDS_P2;PMS_P1;PMS_P2;Temp;Humidity;BMP_temperature;BMP_pressure;BME280_temperature;BME280_humidity;BME280_pressure;Samples;Min_cycle;Max_cycle;Signal;HPM_P1;HPM_P2
2022/07/20 00:02:27;;;;;;;8.60;5.45;;;;;;;17.37;95.32;100139.21;1754196;81;21070;-79
2022/07/20 00:04:54;;;;;;;6.00;5.15;;;;;;;17.34;95.65;100137.61;1728703;81;21362;-71
2022/07/20 00:07:22;;;;;;;5.33;4.70;;;;;;;17.32;96.07;100134.35;1753778;80;21127;-79
2022/07/20 00:12:35;;;;;;;5.65;4.40;;;;;;;17.27;96.77;100133.03;1743800;80;21041;-75
2022/07/20 00:15:03;;;;;;;6.62;4.35;;;;;;;17.28;97.04;100132.76;1708479;82;21106;-75
2022/07/20 00:17:30;;;;;;;6.15;4.40;;;;;;;17.29;97.24;100131.67;1710541;82;21893;-74
2022/07/20 00:19:57;;;;;;;7.78;5.15;;;;;;;17.30;97.36;100129.77;1735384;81;21050;-77
2022/07/20 00:22:24;;;;;;;8.48;4.60;;;;;;;17.32;97.41;100127.02;1725668;82;20893;-75
2022/07/20 00:24:51;;;;;;;6.08;4.80;;;;;;;17.32;97.27;100126.20;1697095;83;21019;-73
2022/07/20 00:27:18;;;;;;;5.78;5.25;;;;;;;17.30;97.22;100120.25;1729195;83;21126;-78
2022/07/20 00:29:44;;;;;;;7.25;5.20;;;;;;;17.28;97.19;100123.78;1729335;83;21110;-69
2022/07/20 00:32:11;;;;;;;6.35;4.60;;;;;;;17.24;97.07;100128.17;1727455;83;21513;-71
2022/07/20 00:34:38;;;;;;;9.05;6.92;;;;;;;17.22;97.19;100131.70;1722787;81;21041;-71
2022/07/20 00:37:04;;;;;;;5.67;4.72;;;;;;;17.20;97.39;100122.50;1728947;82;21023;-74
2022/07/20 00:39:32;;;;;;;4.55;4.10;;;;;;;17.21;97.43;100126.03;1728412;82;21023;-79
2022/07/20 00:42:00;;;;;;;5.80;4.65;;;;;;;17.19;97.43;100115.97;1728163;83;21115;-76
2022/07/20 00:44:28;;;;;;;5.45;4.92;;;;;;;17.18;97.65;100115.70;1701985;83;21034;-77
2022/07/20 00:46:55;;;;;;;4.60;4.20;;;;;;;17.18;97.84;100107.00;1728892;83;21026;-76
2022/07/20 00:49:22;;;;;;;5.65;5.03;;;;;;;17.19;98.03;100106.45;1735914;81;21012;-75
2022/07/20 00:51:49;;;;;;;6.53;5.03;;;;;;;17.19;98.16;100105.09;1754757;81;21497;-73
2022/07/20 00:54:15;;;;;;;7.12;4.30;;;;;;;17.17;98.13;100108.09;1723132;83;21053;-74
2022/07/20 00:56:42;;;;;;;4.28;3.90;;;;;;;17.17;98.14;100111.38;1725879;81;20970;-74
2022/07/20 00:59:10;;;;;;;7.62;4.22;;;;;;;17.13;98.17;100116.55;1735412;81;21062;-75
2022/07/20 01:01:37;;;;;;;6.28;4.75;;;;;;;17.12;98.39;100109.48;1728848;83;20978;-75
2022/07/20 01:04:04;;;;;;;7.33;5.22;;;;;;;17.13;98.57;100107.58;1725161;83;21116;-75
2022/07/20 01:06:33;;;;;;;5.47;4.97;;;;;;;17.14;98.65;100105.95;1737275;81;21640;-73
2022/07/20 01:08:59;;;;;;;5.87;4.35;;;;;;;17.16;98.93;100107.85;1733068;81;20940;-73
2022/07/20 01:11:25;;;;;;;7.40;5.97;;;;;;;17.18;98.88;100109.72;1754580;81;20916;-79
2022/07/20 01:13:54;;;;;;;5.58;4.95;;;;;;;17.19;98.86;100107.27;1726479;81;21086;-79
2022/07/20 01:16:21;;;;;;;6.45;4.83;;;;;;;17.22;98.83;100109.96;1702608;82;21114;-71
2022/07/20 01:18:49;;;;;;;5.25;4.75;;;;;;;17.20;98.70;100108.91;1707704;81;21008;-69
2022/07/20 01:21:16;;;;;;;9.35;5.30;;;;;;;17.19;98.44;100103.73;1712010;81;20975;-72
2022/07/20 01:23:44;;;;;;;7.05;4.72;;;;;;;17.15;98.52;100104.86;1706507;82;20966;-75
2022/07/20 01:26:13;;;;;;;7.75;5.70;;;;;;;17.14;98.67;100107.85;1735396;82;21508;-76
2022/07/20 01:28:39;;;;;;;6.65;5.05;;;;;;;17.13;98.92;100102.96;1732466;81;21037;-75
2022/07/20 01:31:06;;;;;;;6.35;4.03;;;;;;;17.15;99.13;100111.66;1749009;80;21582;-75
2022/07/20 01:33:35;;;;;;;6.08;4.80;;;;;;;17.15;99.12;100118.45;1760962;80;20903;-74
2022/07/20 01:36:02;;;;;;;5.70;5.05;;;;;;;17.16;99.19;100115.19;1755188;81;21005;-74
2022/07/20 01:38:29;;;;;;;5.55;4.60;;;;;;;17.17;99.18;100112.17;1724814;82;21007;-74
2022/07/20 01:40:56;;;;;;;5.75;5.12;;;;;;;17.18;99.06;100117.88;1750204;82;21604;-75
2022/07/20 01:43:23;;;;;;;9.35;5.42;;;;;;;17.17;98.91;100118.18;1752087;80;21100;-74
2022/07/20 01:45:52;;;;;;;4.90;4.40;;;;;;;17.14;99.05;100112.75;1755851;81;21002;-73
2022/07/20 01:48:20;;;;;;;7.15;5.15;;;;;;;17.12;99.20;100112.20;1750778;80;21485;-75
2022/07/20 01:50:47;;;;;;;6.05;5.33;;;;;;;17.11;99.45;100111.96;1751554;81;21039;-74
2022/07/20 01:53:13;;;;;;;5.08;4.65;;;;;;;17.09;99.46;100111.96;1750886;81;21083;-73
2022/07/20 01:55:40;;;;;;;5.00;4.50;;;;;;;17.08;99.37;100123.38;1750860;81;21121;-72
2022/07/20 01:58:06;;;;;;;5.20;4.80;;;;;;;17.07;99.28;100120.42;1759679;80;20965;-73
2022/07/20 02:00:33;;;;;;;7.78;5.70;;;;;;;17.06;99.28;100113.36;1755464;80;21070;-76
2022/07/20 02:03:01;;;;;;;8.20;5.60;;;;;;;17.08;99.27;100120.66;1736789;80;20963;-75
2022/07/20 02:05:28;;;;;;;5.12;4.67;;;;;;;17.08;99.17;100117.94;1746176;81;21523;-75
2022/07/20 02:07:55;;;;;;;7.37;4.80;;;;;;;17.06;99.20;100111.18;1716113;82;21665;-75
2022/07/20 02:10:22;;;;;;;7.25;4.47;;;;;;;17.06;99.38;100116.07;1746848;80;21120;-76
2022/07/20 02:12:51;;;;;;;5.60;4.72;;;;;;;17.07;99.29;100118.24;1768478;80;20988;-79
2022/07/20 02:18:09;;;;;;;5.53;4.90;;;;;;;17.03;99.30;100115.80;1750243;80;21045;-77
2022/07/20 02:20:37;;;;;;;5.17;4.67;;;;;;;17.02;99.61;100113.66;1763944;80;20994;-75
2022/07/20 02:23:06;;;;;;;6.50;5.17;;;;;;;17.04;99.75;100121.50;1729200;81;20979;-76
2022/07/20 02:25:33;;;;;;;6.45;4.78;;;;;;;17.06;99.95;100114.71;1729632;83;21335;-75
2022/07/20 02:28:00;;;;;;;7.45;5.00;;;;;;;17.08;99.93;100113.05;1726280;83;21052;-74
2022/07/20 02:30:28;;;;;;;5.03;4.53;;;;;;;17.11;99.80;100119.30;1723724;83;20971;-76
2022/07/20 02:32:55;;;;;;;6.90;4.47;;;;;;;17.12;99.76;100117.64;1730073;81;21764;-75
2022/07/20 02:35:21;;;;;;;5.47;4.42;;;;;;;17.14;99.61;100118.72;1785272;80;20993;-74
2022/07/20 02:37:48;;;;;;;5.75;5.25;;;;;;;17.15;99.48;100118.99;1755487;80;21013;-73
2022/07/20 02:40:15;;;;;;;8.38;4.90;;;;;;;17.14;99.38;100126.34;1784930;80;20944;-76
2022/07/20 02:42:44;;;;;;;6.03;4.95;;;;;;;17.15;99.30;100117.64;1765500;80;21096;-74
2022/07/20 02:45:13;;;;;;;5.40;4.80;;;;;;;17.14;99.30;100114.65;1767364;80;21099;-76
2022/07/20 02:47:46;;;;;;;6.50;5.47;;;;;;;17.14;99.41;100116.01;1771578;80;21168;-75
2022/07/20 02:50:13;;;;;;;6.53;5.05;;;;;;;17.15;99.61;100104.86;1750650;81;20993;-75
2022/07/20 02:52:40;;;;;;;6.33;5.17;;;;;;;17.18;99.59;100103.47;1750994;82;21032;-74
2022/07/20 02:55:07;;;;;;;4.85;4.42;;;;;;;17.22;99.51;100105.34;1750927;82;21022;-75
2022/07/20 02:57:34;;;;;;;7.47;5.78;;;;;;;17.24;99.24;100097.72;1725406;82;21100;-74
2022/07/20 03:00:01;;;;;;;4.80;4.30;;;;;;;17.27;99.03;100103.94;1771258;80;21546;-75
2022/07/20 03:02:28;;;;;;;7.90;5.67;;;;;;;17.30;99.05;100099.86;1769510;80;21519;-75
2022/07/20 03:04:55;;;;;;;6.10;5.50;;;;;;;17.33;99.11;100104.17;1751470;80;21452;-76
2022/07/20 03:07:23;;;;;;;7.92;5.55;;;;;;;17.36;98.79;100110.39;1755674;81;21585;-74
2022/07/20 03:09:51;;;;;;;6.22;5.62;;;;;;;17.37;98.53;100108.48;1750869;81;21132;-74
2022/07/20 03:12:18;;;;;;;8.58;5.72;;;;;;;17.36;98.41;100106.31;1724706;82;21047;-76
2022/07/20 03:14:44;;;;;;;6.40;5.45;;;;;;;17.34;98.23;100103.08;1750573;82;20946;-74
2022/07/20 03:17:13;;;;;;;6.05;5.45;;;;;;;17.37;98.24;100107.12;1750273;81;20945;-75
2022/07/20 03:19:40;;;;;;;7.08;5.50;;;;;;;17.37;98.16;100108.48;1762834;80;21099;-75
2022/07/20 03:22:07;;;;;;;6.10;5.50;;;;;;;17.37;98.16;100112.56;1750430;82;21148;-74
2022/07/20 03:24:34;;;;;;;7.30;5.85;;;;;;;17.40;98.31;100114.19;1750680;82;21542;-74
2022/07/20 03:27:01;;;;;;;7.20;5.62;;;;;;;17.44;98.27;100117.14;1731020;80;21019;-75
2022/07/20 03:29:27;;;;;;;5.53;5.03;;;;;;;17.46;98.08;100106.77;1750774;81;21041;-75
2022/07/20 03:31:54;;;;;;;7.67;6.00;;;;;;;17.49;97.96;100113.57;1750877;82;21538;-75
2022/07/20 03:34:20;;;;;;;7.30;5.83;;;;;;;17.49;97.80;100105.41;1750851;82;21161;-76
2022/07/20 03:36:49;;;;;;;6.60;5.87;;;;;;;17.50;97.62;100105.14;1750888;82;21023;-75
2022/07/20 03:39:16;;;;;;;6.90;5.90;;;;;;;17.51;97.53;100108.64;1753774;81;21014;-76
2022/07/20 03:41:43;;;;;;;5.87;5.35;;;;;;;17.50;97.49;100103.77;1754872;80;20942;-76
2022/07/20 03:44:11;;;;;;;9.18;6.97;;;;;;;17.53;97.51;100107.82;1783075;80;20962;-74
2022/07/20 03:46:39;;;;;;;9.23;6.92;;;;;;;17.53;97.41;100107.82;1783071;80;21137;-74
2022/07/20 03:49:08;;;;;;;13.75;6.53;;;;;;;17.57;97.48;100112.41;1762723;80;21024;-74
2022/07/20 03:51:38;;;;;;;8.23;5.55;;;;;;;17.62;97.42;100111.03;1783454;80;21052;-74
2022/07/20 03:54:06;;;;;;;6.75;5.40;;;;;;;17.68;97.33;100104.45;1783138;80;21563;-73
2022/07/20 03:56:39;;;;;;;5.47;4.78;;;;;;;17.74;96.81;100105.22;1761440;80;20953;-76
2022/07/20 03:59:03;;;;;;;5.67;4.95;;;;;;;17.74;96.44;100107.94;1753426;80;21154;-73
2022/07/20 04:01:32;;;;;;;6.22;5.08;;;;;;;17.74;96.37;100104.67;1757047;81;20986;-76
2022/07/20 04:03:59;;;;;;;9.23;5.03;;;;;;;17.76;96.24;100108.45;1767119;80;21525;-76
2022/07/20 04:06:26;;;;;;;11.33;5.58;;;;;;;17.79;96.32;100107.89;1783158;80;21053;-74
2022/07/20 04:08:53;;;;;;;6.80;5.50;;;;;;;17.83;96.31;100104.31;1762163;80;21072;-77
2022/07/20 04:11:20;;;;;;;5.72;5.22;;;;;;;17.88;96.20;100106.72;1761216;80;21230;-75
2022/07/20 04:13:48;;;;;;;5.83;4.80;;;;;;;17.93;96.07;100100.67;1783244;80;20961;-75
2022/07/20 04:16:16;;;;;;;7.53;6.15;;;;;;;17.98;95.71;100105.25;1782900;80;20910;-74
2022/07/20 04:18:43;;;;;;;9.15;5.33;;;;;;;18.02;95.42;100103.57;1764270;80;21057;-73
2022/07/20 04:21:10;;;;;;;7.78;5.72;;;;;;;18.04;95.24;100094.55;1756977;81;21595;-73
2022/07/20 04:23:37;;;;;;;5.35;4.50;;;;;;;18.08;95.09;100095.62;1756602;81;21083;-73
2022/07/20 04:26:04;;;;;;;5.00;4.50;;;;;;;18.12;94.92;100089.30;1764413;80;21017;-73
2022/07/20 04:28:31;;;;;;;6.92;4.97;;;;;;;18.18;94.61;100082.67;1760437;80;20985;-73
2022/07/20 04:30:59;;;;;;;7.15;5.95;;;;;;;18.25;94.33;100081.79;1750852;82;21053;-75
2022/07/20 04:33:26;;;;;;;6.85;4.85;;;;;;;18.34;93.60;100071.61;1750696;80;21511;-75
2022/07/20 04:35:54;;;;;;;5.62;4.83;;;;;;;18.39;93.10;100075.08;1782511;80;21135;-74
2022/07/20 04:38:21;;;;;;;5.33;4.67;;;;;;;18.43;92.62;100076.66;1771490;80;21681;-74
2022/07/20 04:40:49;;;;;;;5.85;4.40;;;;;;;18.46;91.81;100076.91;1753121;80;21029;-75
2022/07/20 04:43:16;;;;;;;4.72;4.33;;;;;;;18.49;91.22;100078.22;1760922;80;21009;-73
2022/07/20 04:45:43;;;;;;;10.60;4.15;;;;;;;18.51;90.70;100073.30;1782988;80;21017;-76
2022/07/20 04:48:09;;;;;;;5.92;4.40;;;;;;;18.55;90.65;100077.09;1751885;80;21194;-73
2022/07/20 04:50:36;;;;;;;4.55;4.15;;;;;;;18.62;90.01;100078.34;1756876;81;21495;-74
2022/07/20 04:53:03;;;;;;;5.42;3.80;;;;;;;18.67;89.62;100072.81;1756844;80;21100;-75
2022/07/20 04:55:29;;;;;;;5.72;4.65;;;;;;;18.73;89.30;100066.20;1756197;81;21529;-72
2022/07/20 04:57:56;;;;;;;3.90;3.60;;;;;;;18.78;89.13;100061.23;1756540;81;21131;-75
2022/07/20 05:00:23;;;;;;;8.23;4.65;;;;;;;18.85;88.68;100062.23;1751289;81;21086;-76
2022/07/20 05:02:51;;;;;;;12.05;4.28;;;;;;;18.88;88.17;100054.81;1750722;82;21512;-74
2022/07/20 05:05:18;;;;;;;4.83;4.25;;;;;;;18.93;87.64;100051.47;1751108;82;21028;-75
2022/07/20 05:07:45;;;;;;;6.80;4.05;;;;;;;19.00;87.41;100052.44;1754952;81;20986;-73
2022/07/20 05:10:12;;;;;;;5.08;4.58;;;;;;;19.07;86.93;100048.80;1780243;80;21010;-75
2022/07/20 05:12:40;;;;;;;4.12;3.77;;;;;;;19.14;86.42;100047.30;1787861;80;21171;-74
2022/07/20 05:15:08;;;;;;;6.35;4.75;;;;;;;19.20;85.69;100046.66;1787735;80;21100;-75
2022/07/20 05:17:36;;;;;;;7.17;4.72;;;;;;;19.24;85.08;100038.69;1753249;81;20938;-74
2022/07/20 05:20:05;;;;;;;6.80;5.53;;;;;;;19.29;84.75;100037.23;1744352;81;21582;-75
2022/07/20 05:22:35;;;;;;;6.28;5.67;;;;;;;19.34;84.27;100043.97;1750922;82;20945;-75
2022/07/20 05:25:03;;;;;;;6.80;6.05;;;;;;;19.40;84.03;100034.59;1750773;82;21159;-78
2022/07/20 05:27:30;;;;;;;10.30;6.83;;;;;;;19.50;83.76;100033.09;1752675;80;21039;-76
2022/07/20 05:29:57;;;;;;;9.00;6.78;;;;;;;19.58;83.10;100033.75;1750881;81;21317;-75
2022/07/20 05:32:24;;;;;;;10.80;8.28;;;;;;;19.66;82.74;100030.35;1750785;82;21569;-72
2022/07/20 05:34:51;;;;;;;10.18;9.15;;;;;;;19.73;81.73;100026.65;1751168;82;21009;-71
2022/07/20 05:37:18;;;;;;;9.38;6.83;;;;;;;19.79;81.67;100021.91;1751505;81;21081;-75
2022/07/20 05:39:45;;;;;;;9.95;7.17;;;;;;;19.84;81.10;100011.70;1744973;80;21005;-73
2022/07/20 05:42:12;;;;;;;9.45;5.60;;;;;;;19.91;80.76;100009.36;1783007;80;21025;-71
2022/07/20 05:44:39;;;;;;;5.70;5.10;;;;;;;19.97;79.21;100019.08;1782852;80;21006;-74
2022/07/20 05:47:09;;;;;;;4.85;4.12;;;;;;;20.02;78.35;100007.24;1771836;80;21117;-75
2022/07/20 05:49:38;;;;;;;11.08;5.90;;;;;;;20.14;77.25;100011.65;1721123;82;21102;-75
2022/07/20 05:52:05;;;;;;;6.25;4.35;;;;;;;20.14;77.25;100011.65;1732496;82;21508;-74
2022/07/20 05:54:32;;;;;;;4.20;3.80;;;;;;;20.21;77.08;100011.22;1734251;81;21539;-72
2022/07/20 05:56:58;;;;;;;4.40;3.83;;;;;;;20.27;76.58;100016.83;1733826;82;21074;-77
2022/07/20 05:59:27;;;;;;;4.58;3.95;;;;;;;20.30;76.73;100017.05;1733322;82;20984;-75
2022/07/20 06:01:53;;;;;;;4.35;3.80;;;;;;;20.35;76.32;100009.30;1707620;82;21136;-73
2022/07/20 06:04:20;;;;;;;4.62;3.87;;;;;;;20.40;76.09;100003.73;1741638;81;21544;-71
2022/07/20 06:06:48;;;;;;;4.70;3.10;;;;;;;20.44;76.05;100004.72;1698228;82;21539;-72
2022/07/20 06:09:15;;;;;;;6.08;3.40;;;;;;;20.52;75.62;100009.48;1733870;82;21076;-74
2022/07/20 06:11:45;;;;;;;5.03;3.33;;;;;;;20.58;74.56;100001.39;1735418;82;21058;-72
2022/07/20 06:14:11;;;;;;;5.00;3.35;;;;;;;20.66;73.63;100002.05;1735795;82;21121;-73
2022/07/20 06:16:40;;;;;;;4.62;3.08;;;;;;;20.71;72.52;99993.73;1733123;82;21035;-74
2022/07/20 06:19:08;;;;;;;4.08;2.80;;;;;;;20.77;72.52;99987.55;1733483;81;21061;-73
2022/07/20 06:21:36;;;;;;;4.33;2.87;;;;;;;20.80;72.46;99991.06;1743145;81;21119;-71
2022/07/20 06:24:05;;;;;;;7.05;3.22;;;;;;;20.83;72.37;99983.03;1716886;81;21088;-74
2022/07/20 06:26:33;;;;;;;5.15;3.27;;;;;;;20.88;72.34;99978.00;1733884;81;21577;-74
2022/07/20 06:29:00;;;;;;;3.40;2.83;;;;;;;20.91;71.99;99985.58;1724879;83;20997;-73
2022/07/20 06:31:27;;;;;;;5.85;2.62;;;;;;;20.94;70.91;99978.69;1729037;83;21543;-73
2022/07/20 06:33:54;;;;;;;3.67;3.37;;;;;;;20.97;71.22;99969.85;1728863;83;21035;-72
2022/07/20 06:36:21;;;;;;;3.33;2.85;;;;;;;21.05;71.04;99970.48;1727732;82;21024;-72
2022/07/20 06:38:48;;;;;;;4.47;3.27;;;;;;;21.12;70.89;99976.31;1724214;83;21492;-74
2022/07/20 06:41:14;;;;;;;3.33;3.02;;;;;;;21.20;70.39;99975.58;1734325;81;20900;-73
2022/07/20 06:43:41;;;;;;;2.98;2.67;;;;;;;21.26;70.03;99983.34;1753438;81;21036;-73
2022/07/20 06:46:08;;;;;;;4.03;3.62;;;;;;;21.30;69.30;99976.68;1744298;81;21066;-73
2022/07/20 06:48:36;;;;;;;3.95;2.72;;;;;;;21.34;69.45;99980.98;1723306;83;21072;-73
2022/07/20 06:51:03;;;;;;;3.27;2.98;;;;;;;21.37;68.97;99976.24;1728712;83;21643;-75
2022/07/20 06:53:33;;;;;;;3.35;3.05;;;;;;;21.40;68.39;99970.94;1740931;81;21545;-74
2022/07/20 06:56:00;;;;;;;5.35;3.40;;;;;;;21.46;68.94;99980.64;1749266;81;21030;-75
2022/07/20 06:58:27;;;;;;;6.12;3.62;;;;;;;21.50;68.84;99969.86;1728993;83;21062;-74
2022/07/20 07:00:55;;;;;;;3.30;3.00;;;;;;;21.55;68.90;99980.11;1703150;81;21075;-75
2022/07/20 07:03:21;;;;;;;5.42;3.65;;;;;;;21.59;68.33;99957.02;1754494;81;21560;-75
2022/07/20 07:05:50;;;;;;;6.97;4.08;;;;;;;21.64;68.84;99951.40;1745121;81;20982;-76
2022/07/20 07:08:16;;;;;;;4.28;3.77;;;;;;;21.68;67.71;99958.66;1728785;83;21289;-73
2022/07/20 07:10:45;;;;;;;5.25;3.70;;;;;;;21.73;68.16;99959.89;1724000;82;20995;-75
2022/07/20 07:13:13;;;;;;;5.60;3.87;;;;;;;21.79;67.71;99950.16;1723446;82;21019;-74
2022/07/20 07:15:41;;;;;;;8.43;3.60;;;;;;;21.84;66.69;99951.39;1723173;83;21555;-75
2022/07/20 07:18:08;;;;;;;4.33;3.42;;;;;;;21.86;66.59;99945.85;1722239;82;21131;-74
2022/07/20 07:20:35;;;;;;;4.97;4.00;;;;;;;21.89;65.73;99971.78;1734284;81;21072;-74
2022/07/20 07:23:02;;;;;;;9.03;4.10;;;;;;;21.90;66.12;99948.19;1754844;81;21036;-74
2022/07/20 07:25:29;;;;;;;11.73;3.65;;;;;;;21.92;65.44;99938.30;1764442;81;21043;-76
2022/07/20 07:27:56;;;;;;;4.15;3.75;;;;;;;21.96;65.29;99943.41;1732514;80;21259;-74
2022/07/20 07:30:23;;;;;;;6.80;3.90;;;;;;;21.97;64.85;99935.41;1762265;80;20974;-73
2022/07/20 07:32:50;;;;;;;6.22;4.00;;;;;;;22.00;64.50;99938.91;1750816;81;21030;-76
2022/07/20 07:35:20;;;;;;;4.80;4.20;;;;;;;22.02;64.70;99931.96;1748201;82;21005;-76
2022/07/20 07:37:47;;;;;;;9.10;4.53;;;;;;;22.05;64.31;99931.91;1748298;81;21100;-74
2022/07/20 07:40:13;;;;;;;5.08;4.58;;;;;;;22.07;64.28;99908.52;1748367;82;21557;-77
2022/07/20 07:42:42;;;;;;;6.08;3.98;;;;;;;22.11;64.31;99919.64;1754968;80;21633;-78
2022/07/20 07:45:10;;;;;;;6.20;3.72;;;;;;;22.18;64.24;99910.39;1713514;81;21121;-76
2022/07/20 07:47:37;;;;;;;4.83;4.42;;;;;;;22.23;64.42;99900.65;1731281;82;21000;-76
2022/07/20 07:50:05;;;;;;;5.62;5.12;;;;;;;22.28;64.02;99895.02;1730569;83;21098;-76
2022/07/20 07:52:32;;;;;;;4.20;3.55;;;;;;;22.33;64.05;99888.00;1730644;82;21144;-76
2022/07/20 07:54:59;;;;;;;5.87;4.08;;;;;;;22.39;64.19;99893.56;1730323;83;21330;-74
2022/07/20 07:57:27;;;;;;;4.65;4.10;;;;;;;22.46;63.95;99903.47;1730850;81;21104;-77
2022/07/20 07:59:53;;;;;;;5.70;4.08;;;;;;;22.55;63.76;99900.14;1748356;80;21016;-74
2022/07/20 08:02:21;;;;;;;5.78;4.90;;;;;;;22.62;63.48;99881.84;1777028;80;21594;-75
2022/07/20 08:04:49;;;;;;;8.78;4.33;;;;;;;22.67;63.59;99898.12;1733154;82;21671;-75
2022/07/20 08:07:16;;;;;;;5.67;4.97;;;;;;;22.72;63.65;99885.66;1724227;81;21053;-76
2022/07/20 08:09:43;;;;;;;4.97;4.37;;;;;;;22.82;63.05;99876.28;1730538;83;20967;-76
2022/07/20 08:12:10;;;;;;;4.22;3.85;;;;;;;22.92;62.66;99886.91;1731530;82;21710;-75
2022/07/20 08:14:37;;;;;;;4.92;4.42;;;;;;;23.04;61.12;99880.16;1733189;82;21070;-75
2022/07/20 08:17:07;;;;;;;4.62;4.15;;;;;;;23.10;59.41;99871.99;1732966;82;21607;-74
2022/07/20 08:19:33;;;;;;;7.35;4.97;;;;;;;23.14;58.72;99895.45;1708761;83;21010;-75
2022/07/20 08:22:00;;;;;;;11.60;4.62;;;;;;;23.21;59.17;99895.20;1732459;82;21558;-75
2022/07/20 08:24:29;;;;;;;5.30;4.37;;;;;;;23.31;59.12;99900.90;1729544;82;21065;-77
2022/07/20 08:26:56;;;;;;;4.50;4.08;;;;;;;23.40;58.45;99884.60;1714065;83;21576;-76
2022/07/20 08:29:24;;;;;;;10.58;4.33;;;;;;;23.46;58.42;99861.35;1729530;82;21579;-75
2022/07/20 08:31:53;;;;;;;7.47;4.28;;;;;;;23.54;57.68;99851.48;1741620;82;21036;-73
2022/07/20 08:34:22;;;;;;;5.70;5.15;;;;;;;23.58;57.94;99863.40;1741550;82;21080;-74
2022/07/20 08:36:50;;;;;;;8.03;3.98;;;;;;;23.63;58.42;99852.80;1722316;82;21023;-75
2022/07/20 08:39:16;;;;;;;5.17;4.28;;;;;;;23.70;58.47;99849.74;1710670;82;21580;-75
2022/07/20 08:41:43;;;;;;;4.40;3.92;;;;;;;23.80;58.17;99848.55;1684941;85;21118;-76
2022/07/20 08:44:09;;;;;;;9.15;4.15;;;;;;;23.89;57.66;99847.34;1684764;85;20952;-72
2022/07/20 08:46:36;;;;;;;5.30;4.28;;;;;;;23.95;56.30;99843.84;1703727;82;21501;-74
2022/07/20 08:49:06;;;;;;;5.30;4.00;;;;;;;23.97;56.29;99843.52;1711789;82;21005;-75
2022/07/20 08:51:33;;;;;;;4.50;3.77;;;;;;;23.94;56.42;99842.78;1716754;82;21456;-74
2022/07/20 08:54:00;;;;;;;6.55;4.28;;;;;;;23.88;56.39;99832.59;1696933;84;21077;-73
2022/07/20 08:56:27;;;;;;;5.67;4.28;;;;;;;23.83;56.59;99822.61;1685126;84;21026;-73
2022/07/20 08:58:53;;;;;;;5.12;4.62;;;;;;;23.84;56.26;99820.08;1714803;82;20976;-75
2022/07/20 09:01:20;;;;;;;8.73;4.62;;;;;;;23.85;56.27;99817.56;1697977;83;21022;-75
2022/07/20 09:04:10;;;;;;;8.43;5.37;;;;;;;23.86;56.43;99799.95;1698305;84;21579;-75
2022/07/20 09:06:48;;;;;;;7.58;4.72;;;;;;;23.89;56.36;99805.33;1700572;83;21098;-77
2022/07/20 09:09:17;;;;;;;6.30;4.00;;;;;;;23.92;56.32;99781.33;1694076;84;21024;-75
2022/07/20 09:11:47;;;;;;;5.58;4.60;;;;;;;23.93;56.38;99791.75;1682167;84;21045;-73
2022/07/20 09:14:15;;;;;;;5.83;4.45;;;;;;;23.93;56.29;99779.38;1682173;85;21113;-74
2022/07/20 09:16:50;;;;;;;5.25;4.25;;;;;;;23.94;56.09;99790.02;1680012;84;21651;-77
2022/07/20 09:19:17;;;;;;;6.00;5.15;;;;;;;23.98;56.03;99797.05;1685958;84;21253;-74
2022/07/20 09:21:44;;;;;;;5.67;5.12;;;;;;;24.02;55.49;99771.30;1719084;82;21002;-75
2022/07/20 09:24:11;;;;;;;5.78;3.98;;;;;;;24.07;55.40;99765.59;1678337;84;21071;-74
2022/07/20 09:26:38;;;;;;;5.10;3.92;;;;;;;24.17;55.31;99756.16;1690249;84;21383;-74
2022/07/20 09:29:06;;;;;;;4.87;4.30;;;;;;;24.30;54.92;99784.72;1686756;84;20941;-75
2022/07/20 09:31:36;;;;;;;6.10;4.03;;;;;;;24.43;54.47;99757.25;1713249;83;21118;-76
2022/07/20 09:34:17;;;;;;;6.10;4.45;;;;;;;24.53;54.80;99745.81;1697490;83;21052;-73
2022/07/20 09:36:46;;;;;;;7.70;4.03;;;;;;;24.63;54.56;99744.00;1707407;83;21568;-73
2022/07/20 09:39:14;;;;;;;3.95;3.65;;;;;;;24.72;53.80;99722.12;1702749;83;21117;-73
2022/07/20 09:41:45;;;;;;;4.60;4.20;;;;;;;24.78;53.90;99743.33;1706369;83;21010;-74
2022/07/20 09:44:27;;;;;;;5.72;3.85;;;;;;;24.85;53.60;99721.53;1706212;83;21915;-72
2022/07/20 09:46:54;;;;;;;5.05;4.50;;;;;;;24.93;53.60;99726.17;1696407;83;21252;-74
2022/07/20 09:49:21;;;;;;;6.25;4.05;;;;;;;24.99;52.63;99713.77;1692506;84;21491;-74
2022/07/20 09:51:56;;;;;;;6.40;4.87;;;;;;;25.04;52.38;99695.64;1651122;85;21005;-73
2022/07/20 09:54:25;;;;;;;9.03;4.15;;;;;;;25.09;52.71;99687.16;1687965;84;21110;-75
2022/07/20 09:56:52;;;;;;;4.60;4.00;;;;;;;25.18;52.88;99688.39;1700056;83;21520;-73
2022/07/20 09:59:19;;;;;;;5.33;4.10;;;;;;;25.25;52.50;99682.31;1691039;84;21095;-74
2022/07/20 10:01:52;;;;;;;7.62;3.70;;;;;;;25.27;52.45;99695.17;1699548;83;21512;-75
2022/07/20 10:04:23;;;;;;;5.72;3.90;;;;;;;25.27;52.55;99693.80;1698379;83;21002;-74
2022/07/20 10:06:52;;;;;;;4.40;4.00;;;;;;;25.28;52.25;99676.91;1698274;84;21222;-72
2022/07/20 10:09:20;;;;;;;5.33;3.72;;;;;;;25.28;52.33;99676.09;1705766;83;21569;-74
2022/07/20 10:11:50;;;;;;;5.28;4.42;;;;;;;25.23;52.65;99666.73;1700364;83;21552;-74
2022/07/20 10:14:20;;;;;;;5.75;4.05;;;;;;;25.22;52.94;99661.80;1714750;83;33525;-74
2022/07/20 10:16:53;;;;;;;4.72;4.15;;;;;;;25.29;53.01;99661.99;1706748;83;20982;-77
2022/07/20 10:19:41;;;;;;;5.62;4.12;;;;;;;25.37;52.58;99646.50;1697439;83;21132;-76
2022/07/20 10:22:09;;;;;;;6.17;4.00;;;;;;;25.41;52.60;99652.34;1694689;83;21167;-77
2022/07/20 10:24:39;;;;;;;6.28;5.08;;;;;;;25.46;52.71;99640.27;1688478;81;20987;-79
2022/07/20 10:27:26;;;;;;;4.22;3.85;;;;;;;25.50;52.17;99635.09;1710177;83;21020;-78
2022/07/20 10:29:56;;;;;;;6.03;4.60;;;;;;;25.57;51.52;99636.68;1712914;83;21031;-80
2022/07/20 10:32:32;;;;;;;6.05;4.05;;;;;;;25.64;51.44;99614.63;1689047;83;21331;-81
2022/07/20 10:35:27;;;;;;;7.08;3.83;;;;;;;25.67;51.44;99620.22;1714943;82;20964;-82
2022/07/20 10:37:55;;;;;;;6.25;3.67;;;;;;;25.70;51.44;99619.53;1710986;83;20981;-77
2022/07/20 10:40:23;;;;;;;6.70;4.17;;;;;;;25.72;51.36;99607.56;1653121;84;21099;-77
2022/07/20 10:42:55;;;;;;;5.92;3.33;;;;;;;25.74;51.29;99602.52;1697555;83;21504;-77
2022/07/20 10:45:27;;;;;;;5.45;4.42;;;;;;;25.76;51.16;99605.70;1691791;84;22210;-79
2022/07/20 10:48:14;;;;;;;6.60;5.00;;;;;;;25.79;51.26;99605.02;1698785;84;21053;-78
2022/07/20 10:50:53;;;;;;;6.83;4.25;;;;;;;25.82;50.88;99594.66;1689256;84;20988;-79
2022/07/20 10:53:28;;;;;;;6.25;3.92;;;;;;;25.93;50.29;99585.30;1697606;84;21087;-81
2022/07/20 10:56:00;;;;;;;6.85;3.90;;;;;;;26.05;50.63;99576.35;1690910;84;20995;-83
2022/07/20 10:58:38;;;;;;;4.57;4.10;;;;;;;26.24;50.04;99573.48;1670862;86;21050;-83
2022/07/20 11:01:12;;;;;;;5.30;4.08;;;;;;;26.23;49.80;99585.12;1674087;84;21121;-81
2022/07/20 11:03:43;;;;;;;4.97;4.57;;;;;;;26.19;49.86;99569.58;1698390;84;21024;-80
2022/07/20 11:06:20;;;;;;;4.45;4.05;;;;;;;26.21;49.66;99561.77;1695265;84;28718;-82
2022/07/20 11:08:58;;;;;;;9.80;3.92;;;;;;;26.25;49.36;99578.65;1697089;84;21136;-71
2022/07/20 11:11:31;;;;;;;6.15;4.03;;;;;;;26.29;49.51;99545.06;1697360;84;21007;-72
2022/07/20 11:14:03;;;;;;;6.60;4.47;;;;;;;26.33;49.22;99580.41;1693843;84;22096;-75
2022/07/20 11:16:29;;;;;;;6.33;4.58;;;;;;;26.37;48.90;99529.50;1692491;84;21487;-75
2022/07/20 11:18:59;;;;;;;4.58;4.17;;;;;;;26.37;48.68;99510.19;1695705;83;21107;-72
2022/07/20 11:21:33;;;;;;;4.65;4.17;;;;;;;26.41;48.87;99511.07;1691985;84;21080;-72
2022/07/20 11:23:59;;;;;;;4.40;4.00;;;;;;;26.48;48.90;99516.73;1676123;84;21055;-70
2022/07/20 11:26:26;;;;;;;6.67;3.85;;;;;;;26.51;48.61;99527.64;1699014;84;21100;-71
2022/07/20 11:28:55;;;;;;;6.55;4.33;;;;;;;26.51;48.57;99529.02;1706260;82;20994;-72
2022/07/20 11:31:29;;;;;;;4.53;4.10;;;;;;;26.44;48.55;99517.23;1736531;81;20999;-73
2022/07/20 11:33:59;;;;;;;6.00;3.90;;;;;;;26.34;48.68;99504.80;1727164;81;20979;-69
2022/07/20 11:36:31;;;;;;;5.33;4.78;;;;;;;26.29;48.91;99504.27;1711868;82;21078;-77
2022/07/20 11:39:00;;;;;;;4.05;3.52;;;;;;;26.26;49.21;99491.22;1734743;81;21152;-79
2022/07/20 11:41:37;;;;;;;7.42;4.05;;;;;;;26.25;48.99;99505.58;1741377;82;20980;-78